sensor_id;sensor_type;location;lat;lon;timestamp;P1;durP1;ratioP1;P2;durP2;ratioP2
21860;SDS011;11095;48.066;8.540;2023-10-08T00:01:14;8.93;;;4.65;;
21860;SDS011;11095;48.066;8.540;2023-10-08T00:03:41;8.25;;;4.32;;
21860;SDS011;11095;48.066;8.540;2023-10-08T00:06:13;8.77;;;4.75;;
21860;SDS011;11095;48.066;8.540;2023-10-08T00:08:39;7.68;;;4.50;;
21860;SDS011;11095;48.066;8.540;2023-10-08T00:11:05;8.30;;;4.22;;
21860;SDS011;11095;48.066;8.540;2023-10-08T00:13:32;8.32;;;4.60;;
21860;SDS011;11095;48.066;8.540;2023-10-08T00:16:05;7.50;;;4.18;;
21860;SDS011;11095;48.066;8.540;2023-10-08T00:18:34;7.22;;;4.38;;
21860;SDS011;11095;48.066;8.540;2023-10-08T00:21:00;9.00;;;5.20;;
21860;SDS011;11095;48.066;8.540;2023-10-08T00:23:34;8.57;;;4.60;;
21860;SDS011;11095;48.066;8.540;2023-10-08T00:26:00;6.68;;;4.35;;
21860;SDS011;11095;48.066;8.540;2023-10-08T00:28:29;7.18;;;4.45;;
21860;SDS011;11095;48.066;8.540;2023-10-08T00:30:56;7.05;;;4.05;;
21860;SDS011;11095;48.066;8.540;2023-10-08T00:33:37;6.63;;;4.28;;
21860;SDS011;11095;48.066;8.540;2023-10-08T00:36:04;8.52;;;4.63;;
21860;SDS011;11095;48.066;8.540;2023-10-08T00:38:45;7.85;;;4.38;;
21860;SDS011;11095;48.066;8.540;2023-10-08T00:41:15;7.13;;;4.10;;
21860;SDS011;11095;48.066;8.540;2023-10-08T00:43:41;6.85;;;3.72;;
21860;SDS011;11095;48.066;8.540;2023-10-08T00:46:10;7.10;;;3.83;;
21860;SDS011;11095;48.066;8.540;2023-10-08T00:49:02;8.65;;;4.40;;
21860;SDS011;11095;48.066;8.540;2023-10-08T00:51:46;7.15;;;4.30;;
21860;SDS011;11095;48.066;8.540;2023-10-08T00:54:13;7.38;;;4.40;;
21860;SDS011;11095;48.066;8.540;2023-10-08T00:56:45;7.68;;;4.65;;
21860;SDS011;11095;48.066;8.540;2023-10-08T00:59:18;8.13;;;4.65;;
21860;SDS011;11095;48.066;8.540;2023-10-08T01:01:46;7.57;;;4.75;;
21860;SDS011;11095;48.066;8.540;2023-10-08T01:04:19;7.85;;;4.55;;
21860;SDS011;11095;48.066;8.540;2023-10-08T01:06:53;7.10;;;4.68;;
21860;SDS011;11095;48.066;8.540;2023-10-08T01:09:21;6.35;;;4.05;;
21860;SDS011;11095;48.066;8.540;2023-10-08T01:14:51;8.98;;;4.60;;
21860;SDS011;11095;48.066;8.540;2023-10-08T01:17:21;8.80;;;4.75;;
21860;SDS011;11095;48.066;8.540;2023-10-08T01:19:52;7.47;;;4.70;;
21860;SDS011;11095;48.066;8.540;2023-10-08T01:22:56;7.22;;;4.20;;
21860;SDS011;11095;48.066;8.540;2023-10-08T01:25:22;8.15;;;4.53;;
21860;SDS011;11095;48.066;8.540;2023-10-08T01:27:54;7.60;;;4.88;;
21860;SDS011;11095;48.066;8.540;2023-10-08T01:30:20;7.30;;;4.45;;
21860;SDS011;11095;48.066;8.540;2023-10-08T01:32:46;7.68;;;4.50;;
21860;SDS011;11095;48.066;8.540;2023-10-08T01:35:12;7.70;;;4.57;;
21860;SDS011;11095;48.066;8.540;2023-10-08T01:37:51;7.72;;;4.68;;
21860;SDS011;11095;48.066;8.540;2023-10-08T01:40:18;10.38;;;4.95;;
21860;SDS011;11095;48.066;8.540;2023-10-08T01:42:43;7.78;;;4.95;;
21860;SDS011;11095;48.066;8.540;2023-10-08T01:45:10;8.90;;;4.90;;
21860;SDS011;11095;48.066;8.540;2023-10-08T01:47:38;8.30;;;4.68;;
21860;SDS011;11095;48.066;8.540;2023-10-08T01:50:04;6.95;;;4.45;;
21860;SDS011;11095;48.066;8.540;2023-10-08T01:52:30;9.73;;;4.50;;
21860;SDS011;11095;48.066;8.540;2023-10-08T01:54:56;6.97;;;4.53;;
21860;SDS011;11095;48.066;8.540;2023-10-08T01:57:23;6.13;;;4.30;;
21860;SDS011;11095;48.066;8.540;2023-10-08T01:59:48;7.22;;;4.00;;
21860;SDS011;11095;48.066;8.540;2023-10-08T02:02:14;6.75;;;4.60;;
21860;SDS011;11095;48.066;8.540;2023-10-08T02:04:40;7.07;;;4.78;;
21860;SDS011;11095;48.066;8.540;2023-10-08T02:07:06;8.50;;;5.10;;
21860;SDS011;11095;48.066;8.540;2023-10-08T02:09:38;7.10;;;4.55;;
21860;SDS011;11095;48.066;8.540;2023-10-08T02:12:04;6.95;;;4.35;;
21860;SDS011;11095;48.066;8.540;2023-10-08T02:14:30;6.88;;;4.18;;
21860;SDS011;11095;48.066;8.540;2023-10-08T02:16:57;8.55;;;4.80;;
21860;SDS011;11095;48.066;8.540;2023-10-08T02:19:26;8.57;;;4.53;;
21860;SDS011;11095;48.066;8.540;2023-10-08T02:21:56;7.03;;;4.35;;
21860;SDS011;11095;48.066;8.540;2023-10-08T02:24:22;6.97;;;4.13;;
21860;SDS011;11095;48.066;8.540;2023-10-08T02:26:49;7.30;;;4.10;;
21860;SDS011;11095;48.066;8.540;2023-10-08T02:29:16;8.57;;;4.60;;
21860;SDS011;11095;48.066;8.540;2023-10-08T02:31:42;7.00;;;4.45;;
21860;SDS011;11095;48.066;8.540;2023-10-08T02:34:08;6.53;;;4.22;;
21860;SDS011;11095;48.066;8.540;2023-10-08T02:36:38;7.13;;;4.40;;
21860;SDS011;11095;48.066;8.540;2023-10-08T02:39:08;6.97;;;4.40;;
21860;SDS011;11095;48.066;8.540;2023-10-08T02:41:46;6.28;;;4.20;;
21860;SDS011;11095;48.066;8.540;2023-10-08T02:44:15;7.40;;;4.95;;
21860;SDS011;11095;48.066;8.540;2023-10-08T02:46:45;7.68;;;4.63;;
21860;SDS011;11095;48.066;8.540;2023-10-08T02:49:14;7.45;;;4.57;;
21860;SDS011;11095;48.066;8.540;2023-10-08T02:51:45;6.63;;;4.00;;
21860;SDS011;11095;48.066;8.540;2023-10-08T02:54:12;7.00;;;4.40;;
21860;SDS011;11095;48.066;8.540;2023-10-08T02:56:52;7.65;;;4.18;;
21860;SDS011;11095;48.066;8.540;2023-10-08T02:59:23;6.13;;;4.00;;
21860;SDS011;11095;48.066;8.540;2023-10-08T03:04:21;6.78;;;4.00;;
21860;SDS011;11095;48.066;8.540;2023-10-08T03:06:48;5.30;;;3.67;;
21860;SDS011;11095;48.066;8.540;2023-10-08T03:09:21;8.27;;;4.15;;
21860;SDS011;11095;48.066;8.540;2023-10-08T03:11:57;8.93;;;4.60;;
21860;SDS011;11095;48.066;8.540;2023-10-08T03:14:23;7.75;;;4.38;;
21860;SDS011;11095;48.066;8.540;2023-10-08T03:16:52;7.25;;;4.43;;
21860;SDS011;11095;48.066;8.540;2023-10-08T03:19:20;6.60;;;4.30;;
21860;SDS011;11095;48.066;8.540;2023-10-08T03:21:47;6.85;;;3.88;;
21860;SDS011;11095;48.066;8.540;2023-10-08T03:24:16;8.57;;;4.20;;
21860;SDS011;11095;48.066;8.540;2023-10-08T03:27:03;9.07;;;3.88;;
21860;SDS011;11095;48.066;8.540;2023-10-08T03:29:36;7.45;;;4.13;;
21860;SDS011;11095;48.066;8.540;2023-10-08T03:32:11;7.18;;;4.38;;
21860;SDS011;11095;48.066;8.540;2023-10-08T03:34:47;8.02;;;4.55;;
21860;SDS011;11095;48.066;8.540;2023-10-08T03:37:17;8.48;;;4.18;;
21860;SDS011;11095;48.066;8.540;2023-10-08T03:39:46;7.07;;;4.13;;
21860;SDS011;11095;48.066;8.540;2023-10-08T03:42:20;7.32;;;4.00;;
21860;SDS011;11095;48.066;8.540;2023-10-08T03:44:49;6.70;;;4.03;;
21860;SDS011;11095;48.066;8.540;2023-10-08T03:47:17;8.65;;;4.57;;
21860;SDS011;11095;48.066;8.540;2023-10-08T03:49:47;9.00;;;4.60;;
21860;SDS011;11095;48.066;8.540;2023-10-08T03:52:15;7.45;;;3.78;;
21860;SDS011;11095;48.066;8.540;2023-10-08T03:54:42;6.65;;;4.10;;
21860;SDS011;11095;48.066;8.540;2023-10-08T03:57:13;8.18;;;4.57;;
21860;SDS011;11095;48.066;8.540;2023-10-08T03:59:50;7.28;;;4.20;;
21860;SDS011;11095;48.066;8.540;2023-10-08T04:02:20;7.38;;;4.35;;
21860;SDS011;11095;48.066;8.540;2023-10-08T04:04:58;7.20;;;3.90;;
21860;SDS011;11095;48.066;8.540;2023-10-08T04:07:25;6.82;;;4.00;;
21860;SDS011;11095;48.066;8.540;2023-10-08T04:10:03;7.40;;;4.40;;
21860;SDS011;11095;48.066;8.540;2023-10-08T04:12:36;7.53;;;4.20;;
21860;SDS011;11095;48.066;8.540;2023-10-08T04:15:08;8.63;;;4.55;;
21860;SDS011;11095;48.066;8.540;2023-10-08T04:17:37;7.75;;;4.65;;
21860;SDS011;11095;48.066;8.540;2023-10-08T04:20:13;8.57;;;4.25;;
21860;SDS011;11095;48.066;8.540;2023-10-08T04:23:02;6.28;;;4.00;;
21860;SDS011;11095;48.066;8.540;2023-10-08T04:25:30;7.43;;;4.28;;
21860;SDS011;11095;48.066;8.540;2023-10-08T04:27:57;7.18;;;4.38;;
21860;SDS011;11095;48.066;8.540;2023-10-08T04:30:24;6.35;;;3.85;;
21860;SDS011;11095;48.066;8.540;2023-10-08T04:33:00;8.15;;;4.38;;
21860;SDS011;11095;48.066;8.540;2023-10-08T04:35:34;8.18;;;4.28;;
21860;SDS011;11095;48.066;8.540;2023-10-08T04:38:13;6.97;;;3.75;;
21860;SDS011;11095;48.066;8.540;2023-10-08T04:40:50;7.63;;;4.25;;
21860;SDS011;11095;48.066;8.540;2023-10-08T04:43:17;7.53;;;4.28;;
21860;SDS011;11095;48.066;8.540;2023-10-08T04:45:53;8.35;;;4.63;;
21860;SDS011;11095;48.066;8.540;2023-10-08T04:48:22;7.15;;;4.18;;
21860;SDS011;11095;48.066;8.540;2023-10-08T04:50:52;7.13;;;4.13;;
21860;SDS011;11095;48.066;8.540;2023-10-08T04:53:30;7.60;;;4.30;;
21860;SDS011;11095;48.066;8.540;2023-10-08T04:56:01;6.85;;;4.00;;
21860;SDS011;11095;48.066;8.540;2023-10-08T04:58:31;9.48;;;4.05;;
21860;SDS011;11095;48.066;8.540;2023-10-08T05:01:02;9.15;;;4.30;;
21860;SDS011;11095;48.066;8.540;2023-10-08T05:09:00;7.00;;;4.03;;
21860;SDS011;11095;48.066;8.540;2023-10-08T05:11:52;7.55;;;3.88;;
21860;SDS011;11095;48.066;8.540;2023-10-08T05:17:10;8.50;;;4.28;;
21860;SDS011;11095;48.066;8.540;2023-10-08T05:19:36;8.27;;;4.30;;
21860;SDS011;11095;48.066;8.540;2023-10-08T05:22:06;7.32;;;4.07;;
21860;SDS011;11095;48.066;8.540;2023-10-08T05:24:53;7.68;;;4.03;;
21860;SDS011;11095;48.066;8.540;2023-10-08T05:27:35;6.50;;;4.07;;
21860;SDS011;11095;48.066;8.540;2023-10-08T05:30:14;8.55;;;4.47;;
21860;SDS011;11095;48.066;8.540;2023-10-08T05:32:41;7.32;;;4.20;;
21860;SDS011;11095;48.066;8.540;2023-10-08T05:35:26;6.65;;;4.38;;
21860;SDS011;11095;48.066;8.540;2023-10-08T05:38:07;7.28;;;4.32;;
21860;SDS011;11095;48.066;8.540;2023-10-08T05:40:52;7.60;;;4.45;;
21860;SDS011;11095;48.066;8.540;2023-10-08T05:43:21;6.88;;;3.92;;
21860;SDS011;11095;48.066;8.540;2023-10-08T05:46:20;7.32;;;4.43;;
21860;SDS011;11095;48.066;8.540;2023-10-08T05:48:49;7.43;;;4.03;;
21860;SDS011;11095;48.066;8.540;2023-10-08T05:51:31;7.05;;;4.15;;
21860;SDS011;11095;48.066;8.540;2023-10-08T05:56:54;9.00;;;4.32;;
21860;SDS011;11095;48.066;8.540;2023-10-08T05:59:45;5.50;;;3.60;;
21860;SDS011;11095;48.066;8.540;2023-10-08T06:02:28;7.03;;;3.92;;
21860;SDS011;11095;48.066;8.540;2023-10-08T06:04:59;6.82;;;3.85;;
21860;SDS011;11095;48.066;8.540;2023-10-08T06:07:36;7.78;;;3.90;;
21860;SDS011;11095;48.066;8.540;2023-10-08T06:10:18;8.63;;;4.35;;
21860;SDS011;11095;48.066;8.540;2023-10-08T06:13:03;6.25;;;3.75;;
21860;SDS011;11095;48.066;8.540;2023-10-08T06:15:36;6.22;;;3.92;;
21860;SDS011;11095;48.066;8.540;2023-10-08T06:18:17;6.57;;;3.50;;
21860;SDS011;11095;48.066;8.540;2023-10-08T06:20:46;5.88;;;3.65;;
21860;SDS011;11095;48.066;8.540;2023-10-08T06:23:13;6.40;;;3.97;;
21860;SDS011;11095;48.066;8.540;2023-10-08T06:25:43;5.30;;;3.47;;
21860;SDS011;11095;48.066;8.540;2023-10-08T06:28:15;8.65;;;3.88;;
21860;SDS011;11095;48.066;8.540;2023-10-08T06:30:44;6.18;;;3.70;;
21860;SDS011;11095;48.066;8.540;2023-10-08T06:33:14;6.97;;;3.88;;
21860;SDS011;11095;48.066;8.540;2023-10-08T06:35:41;7.97;;;4.28;;
21860;SDS011;11095;48.066;8.540;2023-10-08T06:38:10;8.02;;;4.00;;
21860;SDS011;11095;48.066;8.540;2023-10-08T06:40:37;7.72;;;4.55;;
21860;SDS011;11095;48.066;8.540;2023-10-08T06:43:03;6.45;;;3.83;;
21860;SDS011;11095;48.066;8.540;2023-10-08T06:45:39;9.52;;;6.38;;
21860;SDS011;11095;48.066;8.540;2023-10-08T06:48:09;10.45;;;5.97;;
21860;SDS011;11095;48.066;8.540;2023-10-08T06:50:35;9.10;;;4.97;;
21860;SDS011;11095;48.066;8.540;2023-10-08T06:53:01;8.38;;;4.30;;
21860;SDS011;11095;48.066;8.540;2023-10-08T06:55:36;7.13;;;4.00;;
21860;SDS011;11095;48.066;8.540;2023-10-08T06:58:02;7.30;;;3.90;;
21860;SDS011;11095;48.066;8.540;2023-10-08T07:00:34;6.33;;;3.30;;
21860;SDS011;11095;48.066;8.540;2023-10-08T07:03:13;7.40;;;3.70;;
21860;SDS011;11095;48.066;8.540;2023-10-08T07:05:49;7.70;;;3.70;;
21860;SDS011;11095;48.066;8.540;2023-10-08T07:08:25;7.45;;;3.80;;
21860;SDS011;11095;48.066;8.540;2023-10-08T07:10:52;8.27;;;3.88;;
21860;SDS011;11095;48.066;8.540;2023-10-08T07:13:19;8.32;;;3.92;;
21860;SDS011;11095;48.066;8.540;2023-10-08T07:15:49;6.80;;;4.13;;
21860;SDS011;11095;48.066;8.540;2023-10-08T07:18:15;8.20;;;3.92;;
21860;SDS011;11095;48.066;8.540;2023-10-08T07:20:46;7.60;;;4.07;;
21860;SDS011;11095;48.066;8.540;2023-10-08T07:23:18;8.35;;;4.30;;
21860;SDS011;11095;48.066;8.540;2023-10-08T07:25:51;8.98;;;4.70;;
21860;SDS011;11095;48.066;8.540;2023-10-08T07:28:21;9.90;;;4.20;;
21860;SDS011;11095;48.066;8.540;2023-10-08T07:30:46;9.52;;;4.00;;
21860;SDS011;11095;48.066;8.540;2023-10-08T07:33:14;9.35;;;4.18;;
21860;SDS011;11095;48.066;8.540;2023-10-08T07:35:43;12.23;;;4.13;;
21860;SDS011;11095;48.066;8.540;2023-10-08T07:38:37;12.30;;;4.22;;
21860;SDS011;11095;48.066;8.540;2023-10-08T07:41:04;8.90;;;3.75;;
21860;SDS011;11095;48.066;8.540;2023-10-08T07:43:31;9.93;;;3.83;;
21860;SDS011;11095;48.066;8.540;2023-10-08T07:45:57;9.48;;;3.85;;
21860;SDS011;11095;48.066;8.540;2023-10-08T07:48:23;8.43;;;3.17;;
21860;SDS011;11095;48.066;8.540;2023-10-08T07:50:54;9.75;;;3.67;;
21860;SDS011;11095;48.066;8.540;2023-10-08T07:53:22;8.73;;;3.90;;
21860;SDS011;11095;48.066;8.540;2023-10-08T07:55:49;10.25;;;3.60;;
21860;SDS011;11095;48.066;8.540;2023-10-08T07:58:16;9.07;;;4.00;;
21860;SDS011;11095;48.066;8.540;2023-10-08T08:00:43;11.40;;;3.63;;
21860;SDS011;11095;48.066;8.540;2023-10-08T08:03:19;10.18;;;3.97;;
21860;SDS011;11095;48.066;8.540;2023-10-08T08:05:45;9.32;;;3.70;;
21860;SDS011;11095;48.066;8.540;2023-10-08T08:08:11;9.27;;;3.92;;
21860;SDS011;11095;48.066;8.540;2023-10-08T08:10:42;8.75;;;3.67;;
21860;SDS011;11095;48.066;8.540;2023-10-08T08:13:09;9.30;;;4.10;;
21860;SDS011;11095;48.066;8.540;2023-10-08T08:15:35;10.48;;;3.90;;
21860;SDS011;11095;48.066;8.540;2023-10-08T08:18:06;10.20;;;4.40;;
21860;SDS011;11095;48.066;8.540;2023-10-08T08:20:34;10.60;;;3.58;;
21860;SDS011;11095;48.066;8.540;2023-10-08T08:23:03;11.85;;;4.25;;
21860;SDS011;11095;48.066;8.540;2023-10-08T08:25:38;9.60;;;3.85;;
21860;SDS011;11095;48.066;8.540;2023-10-08T08:28:11;9.82;;;4.28;;
21860;SDS011;11095;48.066;8.540;2023-10-08T08:30:45;13.63;;;4.13;;
21860;SDS011;11095;48.066;8.540;2023-10-08T08:33:13;11.20;;;4.15;;
21860;SDS011;11095;48.066;8.540;2023-10-08T08:35:47;13.23;;;3.88;;
21860;SDS011;11095;48.066;8.540;2023-10-08T08:38:12;9.18;;;3.75;;
21860;SDS011;11095;48.066;8.540;2023-10-08T08:40:38;12.43;;;3.90;;
21860;SDS011;11095;48.066;8.540;2023-10-08T08:43:05;12.18;;;4.25;;
21860;SDS011;11095;48.066;8.540;2023-10-08T08:45:30;11.30;;;3.80;;
21860;SDS011;11095;48.066;8.540;2023-10-08T08:47:58;13.35;;;3.65;;
21860;SDS011;11095;48.066;8.540;2023-10-08T08:50:25;12.27;;;3.60;;
21860;SDS011;11095;48.066;8.540;2023-10-08T08:52:52;11.90;;;3.45;;
21860;SDS011;11095;48.066;8.540;2023-10-08T08:55:18;9.73;;;3.60;;
21860;SDS011;11095;48.066;8.540;2023-10-08T08:57:49;11.85;;;3.83;;
21860;SDS011;11095;48.066;8.540;2023-10-08T09:00:19;14.75;;;3.72;;
21860;SDS011;11095;48.066;8.540;2023-10-08T09:02:45;13.02;;;4.22;;
21860;SDS011;11095;48.066;8.540;2023-10-08T09:05:12;8.55;;;3.35;;
21860;SDS011;11095;48.066;8.540;2023-10-08T09:10:23;13.20;;;4.07;;
21860;SDS011;11095;48.066;8.540;2023-10-08T09:12:53;11.05;;;3.67;;
21860;SDS011;11095;48.066;8.540;2023-10-08T09:15:21;13.90;;;3.85;;
21860;SDS011;11095;48.066;8.540;2023-10-08T09:20:14;13.13;;;3.80;;
21860;SDS011;11095;48.066;8.540;2023-10-08T09:22:40;13.88;;;3.88;;
21860;SDS011;11095;48.066;8.540;2023-10-08T09:25:06;11.23;;;3.55;;
21860;SDS011;11095;48.066;8.540;2023-10-08T09:27:32;11.05;;;3.95;;
21860;SDS011;11095;48.066;8.540;2023-10-08T09:29:58;13.75;;;3.90;;
21860;SDS011;11095;48.066;8.540;2023-10-08T09:32:33;10.80;;;4.10;;
21860;SDS011;11095;48.066;8.540;2023-10-08T09:34:58;13.15;;;4.10;;
21860;SDS011;11095;48.066;8.540;2023-10-08T09:37:25;11.00;;;3.55;;
21860;SDS011;11095;48.066;8.540;2023-10-08T09:39:52;11.40;;;3.90;;
21860;SDS011;11095;48.066;8.540;2023-10-08T09:42:21;9.02;;;3.70;;
21860;SDS011;11095;48.066;8.540;2023-10-08T09:44:49;12.67;;;3.67;;
21860;SDS011;11095;48.066;8.540;2023-10-08T09:47:16;11.27;;;3.63;;
21860;SDS011;11095;48.066;8.540;2023-10-08T09:49:53;11.75;;;3.97;;
21860;SDS011;11095;48.066;8.540;2023-10-08T09:52:28;11.75;;;3.50;;
21860;SDS011;11095;48.066;8.540;2023-10-08T09:55:02;11.43;;;3.63;;
21860;SDS011;11095;48.066;8.540;2023-10-08T09:57:35;15.18;;;3.78;;
21860;SDS011;11095;48.066;8.540;2023-10-08T10:00:02;14.65;;;4.05;;
21860;SDS011;11095;48.066;8.540;2023-10-08T10:04:57;12.10;;;4.10;;
21860;SDS011;11095;48.066;8.540;2023-10-08T10:07:25;11.52;;;3.60;;
21860;SDS011;11095;48.066;8.540;2023-10-08T10:09:53;11.38;;;3.90;;
21860;SDS011;11095;48.066;8.540;2023-10-08T10:12:21;14.77;;;3.75;;
21860;SDS011;11095;48.066;8.540;2023-10-08T10:14:52;10.70;;;3.53;;
21860;SDS011;11095;48.066;8.540;2023-10-08T10:17:20;19.83;;;3.95;;
21860;SDS011;11095;48.066;8.540;2023-10-08T10:19:57;15.43;;;3.63;;
21860;SDS011;11095;48.066;8.540;2023-10-08T10:22:30;22.02;;;4.10;;
21860;SDS011;11095;48.066;8.540;2023-10-08T10:25:00;19.25;;;3.67;;
21860;SDS011;11095;48.066;8.540;2023-10-08T10:27:39;23.33;;;4.15;;
21860;SDS011;11095;48.066;8.540;2023-10-08T10:30:29;15.80;;;4.00;;
21860;SDS011;11095;48.066;8.540;2023-10-08T10:32:55;15.30;;;3.53;;
21860;SDS011;11095;48.066;8.540;2023-10-08T10:37:52;16.63;;;3.90;;
21860;SDS011;11095;48.066;8.540;2023-10-08T10:40:20;14.85;;;3.47;;
21860;SDS011;11095;48.066;8.540;2023-10-08T10:43:05;14.50;;;3.63;;
21860;SDS011;11095;48.066;8.540;2023-10-08T10:45:34;15.50;;;3.58;;
21860;SDS011;11095;48.066;8.540;2023-10-08T10:48:01;11.48;;;3.50;;
21860;SDS011;11095;48.066;8.540;2023-10-08T10:50:40;11.88;;;3.10;;
21860;SDS011;11095;48.066;8.540;2023-10-08T10:53:25;10.65;;;2.80;;
21860;SDS011;11095;48.066;8.540;2023-10-08T10:55:52;13.75;;;3.22;;
21860;SDS011;11095;48.066;8.540;2023-10-08T10:58:34;14.38;;;3.60;;
21860;SDS011;11095;48.066;8.540;2023-10-08T11:01:04;14.70;;;5.97;;
21860;SDS011;11095;48.066;8.540;2023-10-08T11:03:40;25.13;;;9.88;;
21860;SDS011;11095;48.066;8.540;2023-10-08T11:06:07;11.13;;;3.38;;
21860;SDS011;11095;48.066;8.540;2023-10-08T11:08:40;12.20;;;3.72;;
21860;SDS011;11095;48.066;8.540;2023-10-08T11:11:11;25.48;;;9.00;;
21860;SDS011;11095;48.066;8.540;2023-10-08T11:13:36;13.85;;;3.10;;
21860;SDS011;11095;48.066;8.540;2023-10-08T11:16:04;13.13;;;3.13;;
21860;SDS011;11095;48.066;8.540;2023-10-08T11:18:32;16.17;;;5.60;;
21860;SDS011;11095;48.066;8.540;2023-10-08T11:21:05;12.82;;;3.78;;
21860;SDS011;11095;48.066;8.540;2023-10-08T11:23:48;14.13;;;3.88;;
21860;SDS011;11095;48.066;8.540;2023-10-08T11:26:18;11.38;;;3.00;;
21860;SDS011;11095;48.066;8.540;2023-10-08T11:28:46;14.57;;;3.90;;
21860;SDS011;11095;48.066;8.540;2023-10-08T11:31:17;18.70;;;7.45;;
21860;SDS011;11095;48.066;8.540;2023-10-08T11:33:44;17.17;;;6.90;;
21860;SDS011;11095;48.066;8.540;2023-10-08T11:36:19;15.43;;;4.63;;
21860;SDS011;11095;48.066;8.540;2023-10-08T11:38:50;11.95;;;3.38;;
21860;SDS011;11095;48.066;8.540;2023-10-08T11:41:18;22.63;;;9.02;;
21860;SDS011;11095;48.066;8.540;2023-10-08T11:46:31;8.73;;;3.42;;
21860;SDS011;11095;48.066;8.540;2023-10-08T11:49:06;11.32;;;4.32;;
21860;SDS011;11095;48.066;8.540;2023-10-08T11:51:33;20.20;;;8.07;;
21860;SDS011;11095;48.066;8.540;2023-10-08T11:54:02;11.82;;;3.28;;
21860;SDS011;11095;48.066;8.540;2023-10-08T11:56:31;17.90;;;6.10;;
21860;SDS011;11095;48.066;8.540;2023-10-08T11:58:58;14.07;;;4.40;;
21860;SDS011;11095;48.066;8.540;2023-10-08T12:01:26;11.20;;;3.13;;
21860;SDS011;11095;48.066;8.540;2023-10-08T12:03:55;11.75;;;3.70;;
21860;SDS011;11095;48.066;8.540;2023-10-08T12:06:24;12.05;;;3.78;;
21860;SDS011;11095;48.066;8.540;2023-10-08T12:08:54;12.93;;;3.28;;
21860;SDS011;11095;48.066;8.540;2023-10-08T12:11:23;10.80;;;3.33;;
21860;SDS011;11095;48.066;8.540;2023-10-08T12:13:58;12.82;;;3.17;;
21860;SDS011;11095;48.066;8.540;2023-10-08T12:16:24;15.80;;;3.42;;
21860;SDS011;11095;48.066;8.540;2023-10-08T12:23:50;13.48;;;3.58;;
21860;SDS011;11095;48.066;8.540;2023-10-08T12:26:16;13.30;;;3.40;;
21860;SDS011;11095;48.066;8.540;2023-10-08T12:28:44;7.80;;;2.63;;
21860;SDS011;11095;48.066;8.540;2023-10-08T12:31:11;11.57;;;3.47;;
21860;SDS011;11095;48.066;8.540;2023-10-08T12:33:37;13.55;;;3.00;;
21860;SDS011;11095;48.066;8.540;2023-10-08T12:36:03;11.15;;;3.40;;
21860;SDS011;11095;48.066;8.540;2023-10-08T12:38:41;14.05;;;3.38;;
21860;SDS011;11095;48.066;8.540;2023-10-08T12:41:08;14.20;;;3.58;;
21860;SDS011;11095;48.066;8.540;2023-10-08T12:43:38;14.60;;;3.10;;
21860;SDS011;11095;48.066;8.540;2023-10-08T12:46:07;14.90;;;3.08;;
21860;SDS011;11095;48.066;8.540;2023-10-08T12:48:36;15.48;;;3.13;;
21860;SDS011;11095;48.066;8.540;2023-10-08T12:51:02;13.68;;;3.33;;
21860;SDS011;11095;48.066;8.540;2023-10-08T12:53:31;10.75;;;3.05;;
21860;SDS011;11095;48.066;8.540;2023-10-08T12:56:01;10.38;;;2.92;;
21860;SDS011;11095;48.066;8.540;2023-10-08T12:58:31;10.57;;;2.72;;
21860;SDS011;11095;48.066;8.540;2023-10-08T13:01:12;15.85;;;3.20;;
21860;SDS011;11095;48.066;8.540;2023-10-08T13:06:09;12.23;;;3.47;;
21860;SDS011;11095;48.066;8.540;2023-10-08T13:08:46;11.13;;;3.23;;
21860;SDS011;11095;48.066;8.540;2023-10-08T13:11:17;12.68;;;2.90;;
21860;SDS011;11095;48.066;8.540;2023-10-08T13:13:47;12.50;;;3.20;;
21860;SDS011;11095;48.066;8.540;2023-10-08T13:16:14;14.75;;;3.25;;
21860;SDS011;11095;48.066;8.540;2023-10-08T13:18:40;14.93;;;3.28;;
21860;SDS011;11095;48.066;8.540;2023-10-08T13:21:08;17.17;;;3.22;;
21860;SDS011;11095;48.066;8.540;2023-10-08T13:23:34;14.52;;;3.60;;
21860;SDS011;11095;48.066;8.540;2023-10-08T13:26:00;13.82;;;3.20;;
21860;SDS011;11095;48.066;8.540;2023-10-08T13:28:29;15.57;;;3.43;;
21860;SDS011;11095;48.066;8.540;2023-10-08T13:30:58;17.92;;;3.28;;
21860;SDS011;11095;48.066;8.540;2023-10-08T13:33:37;15.45;;;3.58;;
21860;SDS011;11095;48.066;8.540;2023-10-08T13:36:13;16.40;;;3.33;;
21860;SDS011;11095;48.066;8.540;2023-10-08T13:38:40;17.73;;;3.63;;
21860;SDS011;11095;48.066;8.540;2023-10-08T13:41:07;12.45;;;2.88;;
21860;SDS011;11095;48.066;8.540;2023-10-08T13:43:43;17.40;;;3.53;;
21860;SDS011;11095;48.066;8.540;2023-10-08T13:46:11;12.18;;;2.67;;
21860;SDS011;11095;48.066;8.540;2023-10-08T13:48:42;8.43;;;2.70;;
21860;SDS011;11095;48.066;8.540;2023-10-08T13:51:13;13.70;;;3.00;;
21860;SDS011;11095;48.066;8.540;2023-10-08T13:53:40;13.85;;;3.25;;
21860;SDS011;11095;48.066;8.540;2023-10-08T13:56:10;10.07;;;2.88;;
21860;SDS011;11095;48.066;8.540;2023-10-08T13:58:36;13.20;;;3.15;;
21860;SDS011;11095;48.066;8.540;2023-10-08T14:01:06;16.73;;;3.65;;
21860;SDS011;11095;48.066;8.540;2023-10-08T14:03:43;10.10;;;2.70;;
21860;SDS011;11095;48.066;8.540;2023-10-08T14:06:10;12.05;;;2.78;;
21860;SDS011;11095;48.066;8.540;2023-10-08T14:08:35;11.85;;;2.83;;
21860;SDS011;11095;48.066;8.540;2023-10-08T14:11:04;10.77;;;2.67;;
21860;SDS011;11095;48.066;8.540;2023-10-08T14:13:30;13.55;;;3.20;;
21860;SDS011;11095;48.066;8.540;2023-10-08T14:16:00;10.55;;;2.47;;
21860;SDS011;11095;48.066;8.540;2023-10-08T14:18:33;9.82;;;2.60;;
21860;SDS011;11095;48.066;8.540;2023-10-08T14:21:08;9.82;;;2.88;;
21860;SDS011;11095;48.066;8.540;2023-10-08T14:26:04;14.63;;;3.20;;
21860;SDS011;11095;48.066;8.540;2023-10-08T14:28:34;11.13;;;2.80;;
21860;SDS011;11095;48.066;8.540;2023-10-08T14:31:07;12.40;;;3.13;;
21860;SDS011;11095;48.066;8.540;2023-10-08T14:33:33;9.73;;;2.60;;
21860;SDS011;11095;48.066;8.540;2023-10-08T14:36:07;13.85;;;3.08;;
21860;SDS011;11095;48.066;8.540;2023-10-08T14:39:11;15.80;;;3.22;;
21860;SDS011;11095;48.066;8.540;2023-10-08T14:41:55;15.23;;;3.58;;
21860;SDS011;11095;48.066;8.540;2023-10-08T14:44:40;17.30;;;3.17;;
21860;SDS011;11095;48.066;8.540;2023-10-08T14:47:06;11.05;;;2.92;;
21860;SDS011;11095;48.066;8.540;2023-10-08T14:49:32;14.55;;;3.45;;
21860;SDS011;11095;48.066;8.540;2023-10-08T14:51:58;18.52;;;3.72;;
21860;SDS011;11095;48.066;8.540;2023-10-08T14:54:24;12.90;;;3.28;;
21860;SDS011;11095;48.066;8.540;2023-10-08T14:56:50;9.35;;;2.75;;
21860;SDS011;11095;48.066;8.540;2023-10-08T14:59:17;10.20;;;2.72;;
21860;SDS011;11095;48.066;8.540;2023-10-08T15:01:43;9.85;;;2.63;;
21860;SDS011;11095;48.066;8.540;2023-10-08T15:04:10;12.48;;;3.25;;
21860;SDS011;11095;48.066;8.540;2023-10-08T15:06:36;15.57;;;3.15;;
21860;SDS011;11095;48.066;8.540;2023-10-08T15:09:04;13.57;;;3.00;;
21860;SDS011;11095;48.066;8.540;2023-10-08T15:11:30;20.77;;;3.78;;
21860;SDS011;11095;48.066;8.540;2023-10-08T15:13:56;16.98;;;4.50;;
21860;SDS011;11095;48.066;8.540;2023-10-08T15:16:23;10.50;;;2.88;;
21860;SDS011;11095;48.066;8.540;2023-10-08T15:18:50;15.48;;;3.50;;
21860;SDS011;11095;48.066;8.540;2023-10-08T15:21:16;17.65;;;3.20;;
21860;SDS011;11095;48.066;8.540;2023-10-08T15:23:43;9.18;;;3.10;;
21860;SDS011;11095;48.066;8.540;2023-10-08T15:26:10;13.43;;;3.53;;
21860;SDS011;11095;48.066;8.540;2023-10-08T15:28:37;19.45;;;3.60;;
21860;SDS011;11095;48.066;8.540;2023-10-08T15:31:04;14.38;;;3.33;;
21860;SDS011;11095;48.066;8.540;2023-10-08T15:33:30;12.35;;;3.20;;
21860;SDS011;11095;48.066;8.540;2023-10-08T15:35:55;17.33;;;3.70;;
21860;SDS011;11095;48.066;8.540;2023-10-08T15:38:22;21.02;;;4.25;;
21860;SDS011;11095;48.066;8.540;2023-10-08T15:40:48;21.05;;;3.97;;